sensor_id;sensor_type;location;lat;lon;timestamp;P1;durP1;ratioP1;P2;durP2;ratioP2
28437;SDS011;15667;52.376;9.708;2023-11-19T06:37:09;23.13;;;7.00;;
28437;SDS011;15667;52.376;9.708;2023-11-19T06:46:19;20.95;;;5.07;;
28437;SDS011;15667;52.376;9.708;2023-11-19T06:48:45;14.57;;;5.53;;
28437;SDS011;15667;52.376;9.708;2023-11-19T06:51:11;12.68;;;5.03;;
28437;SDS011;15667;52.376;9.708;2023-11-19T06:53:39;16.50;;;4.82;;
28437;SDS011;15667;52.376;9.708;2023-11-19T06:56:22;20.13;;;4.47;;
28437;SDS011;15667;52.376;9.708;2023-11-19T06:58:48;16.40;;;4.53;;
28437;SDS011;15667;52.376;9.708;2023-11-19T07:01:15;18.83;;;5.20;;
28437;SDS011;15667;52.376;9.708;2023-11-19T07:03:41;16.45;;;4.25;;
28437;SDS011;15667;52.376;9.708;2023-11-19T07:06:07;17.38;;;4.03;;
28437;SDS011;15667;52.376;9.708;2023-11-19T07:08:33;19.92;;;4.57;;
28437;SDS011;15667;52.376;9.708;2023-11-19T07:10:59;18.98;;;4.05;;
28437;SDS011;15667;52.376;9.708;2023-11-19T07:13:25;22.52;;;4.00;;
28437;SDS011;15667;52.376;9.708;2023-11-19T07:15:53;18.33;;;4.03;;
28437;SDS011;15667;52.376;9.708;2023-11-19T07:18:19;27.33;;;4.32;;
28437;SDS011;15667;52.376;9.708;2023-11-19T07:20:47;21.70;;;4.15;;
28437;SDS011;15667;52.376;9.708;2023-11-19T07:23:13;22.92;;;4.05;;
28437;SDS011;15667;52.376;9.708;2023-11-19T07:25:44;23.52;;;3.70;;
28437;SDS011;15667;52.376;9.708;2023-11-19T07:28:13;20.00;;;3.53;;
28437;SDS011;15667;52.376;9.708;2023-11-19T07:30:39;28.08;;;3.25;;
28437;SDS011;15667;52.376;9.708;2023-11-19T07:33:05;21.42;;;3.40;;
28437;SDS011;15667;52.376;9.708;2023-11-19T07:35:31;21.48;;;3.80;;
28437;SDS011;15667;52.376;9.708;2023-11-19T07:37:57;19.38;;;3.97;;
28437;SDS011;15667;52.376;9.708;2023-11-19T07:40:23;23.95;;;3.13;;
28437;SDS011;15667;52.376;9.708;2023-11-19T07:42:49;20.65;;;3.88;;
28437;SDS011;15667;52.376;9.708;2023-11-19T07:45:15;22.13;;;3.85;;
28437;SDS011;15667;52.376;9.708;2023-11-19T07:47:42;20.60;;;3.63;;
28437;SDS011;15667;52.376;9.708;2023-11-19T07:50:11;26.92;;;4.72;;
28437;SDS011;15667;52.376;9.708;2023-11-19T07:52:39;19.42;;;3.83;;
28437;SDS011;15667;52.376;9.708;2023-11-19T07:55:05;21.58;;;3.42;;
28437;SDS011;15667;52.376;9.708;2023-11-19T07:57:31;21.52;;;4.20;;
28437;SDS011;15667;52.376;9.708;2023-11-19T07:59:57;22.55;;;3.28;;
28437;SDS011;15667;52.376;9.708;2023-11-19T08:02:32;22.20;;;3.25;;
28437;SDS011;15667;52.376;9.708;2023-11-19T08:04:58;25.25;;;3.63;;
28437;SDS011;15667;52.376;9.708;2023-11-19T08:07:27;21.67;;;3.38;;
28437;SDS011;15667;52.376;9.708;2023-11-19T08:09:52;23.17;;;4.28;;
28437;SDS011;15667;52.376;9.708;2023-11-19T08:12:18;26.25;;;3.85;;
28437;SDS011;15667;52.376;9.708;2023-11-19T08:14:43;21.33;;;3.78;;
28437;SDS011;15667;52.376;9.708;2023-11-19T08:17:09;26.40;;;3.50;;
28437;SDS011;15667;52.376;9.708;2023-11-19T08:19:35;22.95;;;3.40;;
28437;SDS011;15667;52.376;9.708;2023-11-19T08:22:04;20.42;;;3.45;;
28437;SDS011;15667;52.376;9.708;2023-11-19T08:24:30;35.83;;;4.03;;
28437;SDS011;15667;52.376;9.708;2023-11-19T08:26:55;21.02;;;3.45;;
28437;SDS011;15667;52.376;9.708;2023-11-19T08:29:21;20.88;;;4.25;;
28437;SDS011;15667;52.376;9.708;2023-11-19T08:31:47;33.72;;;3.88;;
28437;SDS011;15667;52.376;9.708;2023-11-19T08:34:16;22.00;;;3.35;;
28437;SDS011;15667;52.376;9.708;2023-11-19T08:36:42;26.88;;;3.78;;
28437;SDS011;15667;52.376;9.708;2023-11-19T08:39:08;32.90;;;4.43;;
28437;SDS011;15667;52.376;9.708;2023-11-19T08:41:34;21.25;;;3.85;;
28437;SDS011;15667;52.376;9.708;2023-11-19T08:44:00;21.98;;;3.72;;
28437;SDS011;15667;52.376;9.708;2023-11-19T08:46:28;23.98;;;4.03;;
28437;SDS011;15667;52.376;9.708;2023-11-19T08:48:54;22.05;;;3.40;;
28437;SDS011;15667;52.376;9.708;2023-11-19T08:51:22;25.27;;;3.60;;
28437;SDS011;15667;52.376;9.708;2023-11-19T08:53:50;33.22;;;7.30;;
28437;SDS011;15667;52.376;9.708;2023-11-19T08:56:24;30.88;;;3.90;;
28437;SDS011;15667;52.376;9.708;2023-11-19T08:58:50;24.35;;;3.70;;
28437;SDS011;15667;52.376;9.708;2023-11-19T09:25:22;30.02;;;4.05;;
28437;SDS011;15667;52.376;9.708;2023-11-19T09:35:43;30.17;;;4.18;;
28437;SDS011;15667;52.376;9.708;2023-11-19T09:40:53;28.00;;;4.15;;
28437;SDS011;15667;52.376;9.708;2023-11-19T09:46:28;31.20;;;4.25;;
28437;SDS011;15667;52.376;9.708;2023-11-19T09:48:54;28.85;;;4.05;;
28437;SDS011;15667;52.376;9.708;2023-11-19T09:51:22;27.48;;;4.20;;
28437;SDS011;15667;52.376;9.708;2023-11-19T09:53:48;29.20;;;4.03;;
28437;SDS011;15667;52.376;9.708;2023-11-19T09:56:14;27.55;;;4.63;;
28437;SDS011;15667;52.376;9.708;2023-11-19T09:58:42;33.03;;;4.38;;
28437;SDS011;15667;52.376;9.708;2023-11-19T10:01:08;30.02;;;4.13;;
28437;SDS011;15667;52.376;9.708;2023-11-19T10:03:37;34.83;;;4.93;;
28437;SDS011;15667;52.376;9.708;2023-11-19T10:06:06;37.88;;;4.78;;
28437;SDS011;15667;52.376;9.708;2023-11-19T10:08:33;37.03;;;5.03;;
28437;SDS011;15667;52.376;9.708;2023-11-19T10:10:59;28.40;;;3.70;;
28437;SDS011;15667;52.376;9.708;2023-11-19T10:13:28;30.33;;;4.30;;
28437;SDS011;15667;52.376;9.708;2023-11-19T10:15:57;34.05;;;4.47;;
28437;SDS011;15667;52.376;9.708;2023-11-19T10:18:26;21.17;;;3.33;;
28437;SDS011;15667;52.376;9.708;2023-11-19T10:20:52;21.15;;;4.10;;
28437;SDS011;15667;52.376;9.708;2023-11-19T10:23:20;29.13;;;4.18;;
28437;SDS011;15667;52.376;9.708;2023-11-19T10:25:46;28.33;;;3.45;;
28437;SDS011;15667;52.376;9.708;2023-11-19T10:28:11;27.23;;;3.67;;
28437;SDS011;15667;52.376;9.708;2023-11-19T10:30:39;26.30;;;3.58;;
28437;SDS011;15667;52.376;9.708;2023-11-19T10:33:08;33.85;;;4.57;;
28437;SDS011;15667;52.376;9.708;2023-11-19T10:35:51;23.23;;;4.35;;
28437;SDS011;15667;52.376;9.708;2023-11-19T10:38:26;23.42;;;3.35;;
28437;SDS011;15667;52.376;9.708;2023-11-19T10:40:52;21.83;;;3.70;;
28437;SDS011;15667;52.376;9.708;2023-11-19T10:43:20;22.98;;;3.13;;
28437;SDS011;15667;52.376;9.708;2023-11-19T10:45:49;28.13;;;3.90;;
28437;SDS011;15667;52.376;9.708;2023-11-19T10:48:15;25.85;;;4.45;;
28437;SDS011;15667;52.376;9.708;2023-11-19T10:50:41;20.13;;;3.20;;
28437;SDS011;15667;52.376;9.708;2023-11-19T10:53:10;22.42;;;3.83;;
28437;SDS011;15667;52.376;9.708;2023-11-19T10:55:40;22.20;;;4.68;;
28437;SDS011;15667;52.376;9.708;2023-11-19T10:58:09;22.27;;;3.35;;
28437;SDS011;15667;52.376;9.708;2023-11-19T11:03:19;21.25;;;3.75;;
28437;SDS011;15667;52.376;9.708;2023-11-19T11:05:50;31.55;;;4.50;;
28437;SDS011;15667;52.376;9.708;2023-11-19T11:08:17;30.35;;;5.13;;
28437;SDS011;15667;52.376;9.708;2023-11-19T11:18:00;32.88;;;4.30;;
28437;SDS011;15667;52.376;9.708;2023-11-19T11:47:11;22.63;;;3.83;;
28437;SDS011;15667;52.376;9.708;2023-11-19T11:49:41;23.63;;;3.95;;
28437;SDS011;15667;52.376;9.708;2023-11-19T11:52:09;33.38;;;3.90;;
28437;SDS011;15667;52.376;9.708;2023-11-19T11:54:45;21.05;;;4.85;;
28437;SDS011;15667;52.376;9.708;2023-11-19T12:07:24;23.23;;;4.78;;
28437;SDS011;15667;52.376;9.708;2023-11-19T16:41:43;43.45;;;7.45;;
28437;SDS011;15667;52.376;9.708;2023-11-19T16:44:24;36.75;;;7.78;;
28437;SDS011;15667;52.376;9.708;2023-11-19T16:47:11;37.47;;;7.90;;
28437;SDS011;15667;52.376;9.708;2023-11-19T16:52:35;37.33;;;7.13;;
28437;SDS011;15667;52.376;9.708;2023-11-19T16:55:04;36.00;;;6.75;;
28437;SDS011;15667;52.376;9.708;2023-11-19T16:58:01;31.67;;;6.43;;
28437;SDS011;15667;52.376;9.708;2023-11-19T17:00:35;26.80;;;5.82;;
28437;SDS011;15667;52.376;9.708;2023-11-19T17:03:09;33.22;;;7.10;;
28437;SDS011;15667;52.376;9.708;2023-11-19T17:05:44;32.08;;;7.15;;
28437;SDS011;15667;52.376;9.708;2023-11-19T17:08:42;38.15;;;7.40;;
28437;SDS011;15667;52.376;9.708;2023-11-19T17:11:17;31.10;;;6.25;;
28437;SDS011;15667;52.376;9.708;2023-11-19T17:13:55;21.90;;;4.68;;
28437;SDS011;15667;52.376;9.708;2023-11-19T17:16:21;31.30;;;5.95;;
28437;SDS011;15667;52.376;9.708;2023-11-19T17:18:59;24.05;;;5.85;;
28437;SDS011;15667;52.376;9.708;2023-11-19T17:25:25;30.70;;;7.20;;
28437;SDS011;15667;52.376;9.708;2023-11-19T17:27:57;32.72;;;5.70;;
28437;SDS011;15667;52.376;9.708;2023-11-19T21:24:57;14.98;;;5.65;;
28437;SDS011;15667;52.376;9.708;2023-11-19T21:38:08;12.20;;;4.78;;
